createdAt,value
2022-08-16T00:00:22.905Z,18.29
2022-08-16T00:02:49.866Z,18.25
2022-08-16T00:05:19.579Z,18.18
2022-08-16T00:07:47.404Z,18.15
2022-08-16T00:10:20.960Z,18.16
2022-08-16T00:12:50.675Z,18.16
2022-08-16T00:15:22.031Z,18.14
2022-08-16T00:17:56.997Z,18.28
2022-08-16T00:20:25.217Z,18.28
2022-08-16T00:22:52.184Z,18.40
2022-08-16T00:26:33.614Z,18.43
2022-08-16T00:28:11.079Z,18.49
2022-08-16T00:30:38.423Z,18.47
2022-08-16T00:33:08.326Z,18.53
2022-08-16T00:35:37.388Z,18.74
2022-08-16T00:38:40.032Z,19.04
2022-08-16T00:40:54.876Z,19.34
2022-08-16T00:43:40.849Z,19.43
2022-08-16T00:46:33.209Z,19.38
2022-08-16T00:49:02.994Z,19.43
2022-08-16T00:51:30.958Z,19.43
2022-08-16T00:53:58.464Z,19.46
2022-08-16T00:56:58.456Z,19.55
2022-08-16T00:59:21.063Z,19.60
2022-08-16T01:01:52.248Z,19.58
2022-08-16T01:04:29.535Z,19.58
2022-08-16T01:07:01.232Z,19.53
2022-08-16T01:09:33.573Z,19.44
2022-08-16T01:12:03.556Z,19.40
2022-08-16T01:14:35.431Z,19.34
2022-08-16T01:17:03.707Z,19.32
2022-08-16T01:19:40.904Z,19.28
2022-08-16T01:22:48.280Z,19.26
2022-08-16T01:25:08.765Z,19.21
2022-08-16T01:27:40.949Z,19.21
2022-08-16T01:30:20.205Z,19.15
2022-08-16T01:33:01.360Z,19.08
2022-08-16T01:35:36.576Z,19.04
2022-08-16T01:38:19.433Z,18.98
2022-08-16T01:40:51.643Z,18.85
2022-08-16T01:43:18.699Z,18.88
2022-08-16T01:45:46.580Z,18.81
2022-08-16T01:48:19.151Z,18.76
2022-08-16T01:51:16.468Z,18.57
2022-08-16T01:53:36.109Z,18.33
2022-08-16T01:56:22.080Z,18.23
2022-08-16T01:58:52.211Z,18.15
2022-08-16T02:01:19.134Z,18.02
2022-08-16T02:03:50.516Z,17.90
2022-08-16T02:06:33.973Z,17.96
2022-08-16T02:09:06.084Z,17.85
2022-08-16T02:11:48.520Z,17.75
2022-08-16T02:14:22.510Z,17.56
2022-08-16T02:16:56.289Z,17.44
2022-08-16T02:19:58.945Z,17.42
2022-08-16T02:22:34.109Z,17.40
2022-08-16T02:25:05.889Z,17.54
2022-08-16T02:27:34.119Z,17.82
2022-08-16T02:30:05.208Z,18.08
2022-08-16T02:32:49.877Z,18.25
2022-08-16T02:35:23.182Z,18.41
2022-08-16T02:37:52.550Z,18.49
2022-08-16T02:40:23.681Z,18.49
2022-08-16T02:42:54.582Z,18.51
2022-08-16T02:45:27.668Z,18.53
2022-08-16T02:48:00.345Z,18.47
2022-08-16T02:50:53.901Z,18.46
2022-08-16T02:53:18.083Z,18.45
2022-08-16T02:55:46.165Z,18.43
2022-08-16T02:58:19.905Z,18.45
2022-08-16T03:00:53.357Z,18.48
2022-08-16T03:03:25.007Z,18.47
2022-08-16T03:05:53.282Z,18.45
2022-08-16T03:08:50.873Z,18.47
2022-08-16T03:11:16.911Z,18.46
2022-08-16T03:13:53.287Z,18.51
2022-08-16T03:16:38.450Z,18.50
2022-08-16T03:19:10.591Z,18.46
2022-08-16T03:21:38.901Z,18.42
2022-08-16T03:24:28.830Z,18.35
2022-08-16T03:26:59.418Z,18.29
2022-08-16T03:29:33.415Z,18.21
2022-08-16T03:32:03.695Z,18.20
2022-08-16T03:34:33.488Z,18.21
2022-08-16T03:37:00.787Z,18.16
2022-08-16T03:39:28.370Z,18.13
2022-08-16T03:41:59.711Z,18.09
2022-08-16T03:44:43.363Z,18.12
2022-08-16T03:47:12.597Z,18.10
2022-08-16T03:49:39.573Z,18.18
2022-08-16T03:52:07.525Z,18.26
2022-08-16T03:54:36.270Z,18.30
2022-08-16T03:57:05.299Z,18.39
2022-08-16T03:59:35.428Z,18.38
2022-08-16T04:02:12.615Z,18.43
2022-08-16T04:04:50.492Z,18.43
2022-08-16T04:07:17.634Z,18.47
2022-08-16T04:09:47.154Z,18.50
2022-08-16T04:12:53.331Z,18.57
2022-08-16T04:15:04.660Z,18.57
2022-08-16T04:17:38.363Z,18.58
2022-08-16T04:20:23.758Z,18.57
2022-08-16T04:22:57.790Z,18.60
2022-08-16T04:25:27.115Z,18.62
2022-08-16T04:27:56.007Z,18.59
2022-08-16T04:30:31.787Z,18.57
2022-08-16T04:32:59.541Z,18.54
2022-08-16T04:35:28.274Z,18.48
2022-08-16T04:38:11.037Z,18.46
2022-08-16T04:40:50.033Z,18.46
2022-08-16T04:43:18.778Z,18.52
2022-08-16T04:45:47.482Z,18.55
2022-08-16T04:48:32.580Z,18.63
2022-08-16T04:51:08.037Z,18.64
2022-08-16T04:53:44.515Z,18.62
2022-08-16T04:56:11.936Z,18.65
2022-08-16T04:58:45.470Z,18.72
2022-08-16T05:01:18.119Z,18.79
2022-08-16T05:04:00.845Z,18.84
2022-08-16T05:06:44.645Z,18.94
2022-08-16T05:09:19.187Z,19.00
2022-08-16T05:11:51.985Z,19.07
2022-08-16T05:14:20.268Z,19.11
2022-08-16T05:17:07.396Z,19.20
2022-08-16T05:19:35.749Z,19.23
2022-08-16T05:22:18.188Z,19.24
2022-08-16T05:24:54.947Z,19.25
2022-08-16T05:27:22.746Z,19.19
2022-08-16T05:29:57.428Z,19.13
2022-08-16T05:32:32.749Z,19.11
2022-08-16T05:35:07.839Z,19.08
2022-08-16T05:37:43.422Z,19.02
2022-08-16T05:40:14.401Z,18.99
2022-08-16T05:42:47.572Z,18.96
2022-08-16T05:45:22.133Z,18.99
2022-08-16T05:48:00.142Z,18.99
2022-08-16T05:50:52.865Z,19.00
2022-08-16T05:53:24.185Z,19.05
2022-08-16T05:56:19.538Z,19.07
2022-08-16T05:58:48.492Z,19.06
2022-08-16T06:01:16.307Z,19.17
2022-08-16T06:03:48.371Z,19.27
2022-08-16T06:06:28.881Z,19.41
2022-08-16T06:08:57.125Z,19.48
2022-08-16T06:11:25.654Z,19.52
2022-08-16T06:13:56.265Z,19.59
2022-08-16T06:16:38.706Z,19.60
2022-08-16T06:19:07.068Z,19.70
2022-08-16T06:21:39.923Z,19.80
2022-08-16T06:24:53.980Z,19.89
2022-08-16T06:26:57.920Z,20.01
2022-08-16T06:29:28.084Z,20.03
2022-08-16T06:31:55.223Z,20.15
2022-08-16T06:34:55.009Z,20.25
2022-08-16T06:37:14.669Z,20.39
2022-08-16T06:39:46.658Z,20.43
2022-08-16T06:42:39.632Z,20.53
2022-08-16T06:45:38.214Z,20.52
2022-08-16T06:48:13.967Z,20.45
2022-08-16T06:50:52.072Z,20.40
2022-08-16T06:53:19.925Z,20.40
2022-08-16T06:56:05.685Z,20.42
2022-08-16T06:58:45.124Z,20.39
2022-08-16T07:01:21.395Z,20.47
2022-08-16T07:03:54.997Z,20.55
2022-08-16T07:06:26.777Z,20.56
2022-08-16T07:08:57.311Z,20.55
2022-08-16T07:11:45.672Z,20.71
2022-08-16T07:14:24.152Z,20.91
2022-08-16T07:16:58.335Z,21.06
2022-08-16T07:20:01.661Z,21.26
2022-08-16T07:22:38.359Z,21.36
2022-08-16T07:25:03.149Z,21.41
2022-08-16T07:27:32.017Z,21.39
2022-08-16T07:30:45.077Z,21.39
2022-08-16T07:32:55.536Z,21.51
2022-08-16T07:35:23.334Z,21.58
2022-08-16T07:37:52.418Z,21.74
2022-08-16T07:40:56.369Z,21.99
2022-08-16T07:43:17.075Z,22.12
2022-08-16T07:45:48.272Z,22.45
2022-08-16T07:48:20.132Z,22.54
2022-08-16T07:50:57.034Z,22.64
2022-08-16T07:53:29.466Z,22.66
2022-08-16T07:55:57.901Z,22.97
2022-08-16T07:58:34.677Z,23.41
2022-08-16T08:01:10.410Z,23.87
2022-08-16T08:03:49.362Z,24.13
2022-08-16T08:06:24.688Z,24.30
2022-08-16T08:08:57.186Z,25.31
2022-08-16T08:11:28.549Z,25.20
2022-08-16T08:14:03.258Z,25.49
2022-08-16T08:16:35.747Z,25.87
2022-08-16T08:19:04.372Z,26.08
2022-08-16T08:21:59.895Z,26.37
2022-08-16T08:24:32.247Z,26.20
2022-08-16T08:27:02.297Z,26.17
2022-08-16T08:29:37.221Z,26.21
2022-08-16T08:32:59.391Z,26.87
2022-08-16T08:35:00.335Z,26.98
2022-08-16T08:37:54.107Z,26.95
2022-08-16T08:40:24.350Z,27.17
2022-08-16T08:42:57.996Z,27.28
2022-08-16T08:45:47.881Z,27.62
2022-08-16T08:48:33.290Z,28.11
2022-08-16T08:51:08.995Z,28.24
2022-08-16T08:53:43.451Z,28.51
2022-08-16T08:56:22.829Z,28.42
2022-08-16T08:58:54.023Z,28.13
2022-08-16T09:01:36.843Z,28.26
2022-08-16T09:04:14.460Z,28.37
2022-08-16T09:06:46.263Z,28.30
2022-08-16T09:09:17.157Z,27.99
2022-08-16T09:12:04.206Z,27.92
2022-08-16T09:14:47.201Z,26.92
2022-08-16T09:17:38.342Z,27.19
2022-08-16T09:20:06.958Z,27.27
2022-08-16T09:22:34.602Z,27.88
2022-08-16T09:25:09.689Z,28.66
2022-08-16T09:27:56.833Z,29.02
2022-08-16T09:30:40.901Z,29.88
2022-08-16T09:33:13.014Z,29.77
2022-08-16T09:35:42.579Z,29.86
2022-08-16T09:38:31.322Z,30.84
2022-08-16T09:41:01.160Z,30.99
2022-08-16T09:46:44.985Z,31.02
2022-08-16T09:49:04.630Z,31.96
2022-08-16T09:51:36.476Z,31.83
2022-08-16T09:54:04.447Z,32.30
2022-08-16T09:56:35.439Z,32.06
2022-08-16T09:59:08.162Z,32.91
2022-08-16T10:01:36.491Z,33.13
2022-08-16T10:04:06.977Z,32.99
2022-08-16T10:06:50.704Z,33.12
2022-08-16T10:09:20.358Z,31.86
2022-08-16T10:12:11.549Z,33.41
2022-08-16T10:14:46.468Z,32.67
2022-08-16T10:17:13.844Z,33.06
2022-08-16T10:19:41.761Z,33.42
2022-08-16T10:22:12.687Z,33.88
2022-08-16T10:24:40.502Z,33.08
2022-08-16T10:27:29.941Z,31.48
2022-08-16T10:30:25.344Z,30.16
2022-08-16T10:32:55.550Z,29.59
2022-08-16T10:35:22.817Z,28.97
2022-08-16T10:37:52.219Z,29.45
2022-08-16T10:40:29.189Z,29.86
2022-08-16T10:42:59.978Z,31.60
2022-08-16T10:45:36.568Z,31.83
2022-08-16T10:48:06.467Z,31.78
2022-08-16T10:50:53.235Z,31.74
2022-08-16T10:53:20.028Z,31.92
2022-08-16T10:55:48.612Z,31.82
2022-08-16T10:58:34.332Z,31.30
2022-08-16T11:03:54.176Z,31.37
2022-08-16T11:06:26.790Z,30.70
2022-08-16T11:14:29.332Z,30.33
2022-08-16T11:17:02.209Z,30.14
2022-08-16T11:19:30.451Z,29.62
2022-08-16T11:22:39.381Z,30.35
2022-08-16T11:24:45.260Z,30.78
2022-08-16T11:27:32.733Z,31.58
2022-08-16T11:30:03.970Z,31.23
2022-08-16T11:32:37.979Z,30.92
2022-08-16T11:35:11.031Z,30.14
2022-08-16T11:40:33.786Z,30.09
2022-08-16T11:43:04.862Z,29.61
2022-08-16T11:45:33.968Z,30.26
2022-08-16T11:48:04.215Z,30.32
2022-08-16T11:50:33.584Z,30.03
2022-08-16T11:53:02.438Z,29.70
2022-08-16T11:55:30.735Z,29.05
2022-08-16T11:57:57.707Z,28.70
2022-08-16T12:00:33.819Z,28.65
2022-08-16T12:03:13.319Z,28.22
2022-08-16T12:05:44.057Z,28.11
2022-08-16T12:08:12.614Z,27.76
2022-08-16T12:10:40.875Z,28.00
2022-08-16T12:13:10.966Z,27.90
2022-08-16T12:15:37.984Z,27.98
2022-08-16T12:18:06.811Z,28.51
2022-08-16T12:20:37.755Z,29.13
2022-08-16T12:23:05.543Z,29.80
2022-08-16T12:25:34.088Z,30.72
2022-08-16T12:28:03.536Z,31.16
2022-08-16T12:30:36.375Z,31.33
2022-08-16T12:33:07.994Z,31.31
2022-08-16T12:35:38.416Z,31.90
2022-08-16T12:38:08.885Z,31.48
2022-08-16T12:40:57.069Z,30.64
2022-08-16T12:43:25.506Z,30.97
2022-08-16T12:45:55.429Z,31.13
2022-08-16T12:48:44.276Z,31.39
2022-08-16T12:51:19.743Z,31.24
2022-08-16T12:53:47.830Z,31.13
2022-08-16T12:56:17.293Z,30.87
2022-08-16T12:58:51.825Z,30.34
2022-08-16T13:01:22.459Z,30.60
2022-08-16T13:03:49.538Z,30.14
2022-08-16T13:06:29.395Z,29.87
2022-08-16T13:09:02.475Z,29.75
2022-08-16T13:11:38.641Z,29.55
2022-08-16T13:14:08.350Z,29.14
2022-08-16T13:16:46.055Z,29.11
2022-08-16T13:19:12.828Z,28.79
2022-08-16T13:21:41.106Z,28.69
2022-08-16T13:24:08.141Z,28.78
2022-08-16T13:26:34.945Z,28.69
2022-08-16T13:29:01.747Z,28.83
2022-08-16T13:31:28.540Z,28.58
2022-08-16T13:33:58.915Z,28.56
2022-08-16T13:36:48.076Z,28.19
2022-08-16T13:39:14.418Z,28.15
2022-08-16T13:41:41.426Z,27.53
2022-08-16T13:44:09.512Z,27.45
2022-08-16T13:46:37.402Z,27.51
2022-08-16T13:49:05.766Z,27.79
2022-08-16T13:51:33.045Z,27.61
2022-08-16T13:54:04.636Z,27.78
2022-08-16T13:56:37.875Z,27.83
2022-08-16T13:59:19.687Z,28.03
2022-08-16T14:01:54.711Z,27.73
2022-08-16T14:04:26.657Z,27.54
2022-08-16T14:06:53.972Z,27.44
2022-08-16T14:09:21.872Z,27.76
2022-08-16T14:11:53.384Z,27.93
2022-08-16T14:14:28.352Z,28.16
2022-08-16T14:16:57.211Z,27.99
2022-08-16T14:19:24.014Z,28.30
2022-08-16T14:22:13.482Z,28.44
2022-08-16T14:24:45.274Z,28.11
2022-08-16T14:27:16.192Z,28.67
2022-08-16T14:29:44.113Z,28.90
2022-08-16T14:32:21.967Z,29.02
2022-08-16T14:35:00.184Z,28.05
2022-08-16T14:37:27.196Z,27.34
2022-08-16T14:39:54.893Z,27.15
2022-08-16T14:42:26.800Z,27.04
2022-08-16T14:44:54.172Z,26.67
2022-08-16T14:47:22.393Z,26.52
2022-08-16T14:49:52.448Z,26.45
2022-08-16T14:52:44.578Z,26.25
2022-08-16T14:55:09.831Z,26.00
2022-08-16T14:57:40.297Z,26.12
2022-08-16T15:00:11.836Z,26.39
2022-08-16T15:02:45.871Z,26.73
2022-08-16T15:05:12.930Z,26.74
2022-08-16T15:07:41.196Z,26.72
2022-08-16T15:10:21.650Z,26.67
2022-08-16T15:12:56.256Z,26.88
2022-08-16T15:15:27.285Z,26.97
2022-08-16T15:17:57.051Z,26.85
2022-08-16T15:20:26.540Z,26.43
2022-08-16T15:22:54.724Z,26.46
2022-08-16T15:25:29.075Z,26.25
2022-08-16T15:27:58.820Z,26.08
2022-08-16T15:30:57.609Z,26.05
2022-08-16T15:33:16.730Z,25.83
2022-08-16T15:35:46.229Z,25.66
2022-08-16T15:38:31.694Z,25.56
2022-08-16T15:41:01.256Z,25.56
2022-08-16T15:43:38.922Z,25.45
2022-08-16T15:46:35.628Z,25.47
2022-08-16T15:49:12.979Z,25.38
2022-08-16T15:51:41.265Z,25.34
2022-08-16T15:54:29.432Z,25.30
2022-08-16T15:57:02.696Z,25.63
2022-08-16T15:59:34.874Z,26.08
2022-08-16T16:02:18.507Z,26.56
2022-08-16T16:04:54.961Z,26.63
2022-08-16T16:07:22.269Z,26.42
2022-08-16T16:09:49.175Z,25.84
2022-08-16T16:12:50.462Z,25.33
2022-08-16T16:15:09.155Z,25.04
2022-08-16T16:17:36.123Z,24.72
2022-08-16T16:20:03.515Z,24.57
2022-08-16T16:22:30.392Z,24.51
2022-08-16T16:24:57.493Z,24.55
2022-08-16T16:27:25.254Z,24.63
2022-08-16T16:29:58.003Z,24.76
2022-08-16T16:32:34.384Z,24.69
2022-08-16T16:35:01.597Z,24.50
2022-08-16T16:37:28.974Z,24.40
2022-08-16T16:39:57.113Z,24.42
2022-08-16T16:42:29.981Z,24.56
2022-08-16T16:45:01.739Z,24.59
2022-08-16T16:47:40.646Z,24.62
2022-08-16T16:50:09.547Z,24.49
2022-08-16T16:52:44.286Z,24.42
2022-08-16T16:55:13.429Z,24.55
2022-08-16T16:58:01.258Z,24.48
2022-08-16T17:00:38.048Z,24.49
2022-08-16T17:03:17.180Z,24.44
2022-08-16T17:06:00.344Z,24.25
2022-08-16T17:08:33.099Z,24.03
2022-08-16T17:11:00.860Z,23.95
2022-08-16T17:13:28.839Z,24.00
2022-08-16T17:15:55.955Z,23.95
2022-08-16T17:19:15.195Z,23.94
2022-08-16T17:21:11.337Z,23.87
2022-08-16T17:23:59.651Z,23.75
2022-08-16T17:26:29.507Z,23.64
2022-08-16T17:29:00.096Z,23.46
2022-08-16T17:31:38.375Z,23.25
2022-08-16T17:34:29.102Z,23.10
2022-08-16T17:36:58.872Z,22.91
2022-08-16T17:39:29.597Z,22.74
2022-08-16T17:41:57.207Z,22.64
2022-08-16T17:44:24.046Z,22.50
2022-08-16T17:46:52.975Z,22.39
2022-08-16T17:49:21.310Z,22.28
2022-08-16T17:51:48.280Z,22.20
2022-08-16T17:54:18.425Z,22.14
2022-08-16T17:56:57.924Z,22.07
2022-08-16T17:59:24.779Z,22.05
2022-08-16T18:01:51.880Z,22.02
2022-08-16T18:04:48.666Z,22.00
2022-08-16T18:07:08.359Z,22.02
2022-08-16T18:09:37.044Z,22.06
2022-08-16T18:12:33.941Z,22.05
2022-08-16T18:15:00.207Z,22.06
2022-08-16T18:17:27.223Z,22.02
2022-08-16T18:19:54.019Z,22.02
2022-08-16T18:22:30.610Z,21.98
2022-08-16T18:24:57.911Z,21.87
2022-08-16T18:27:27.021Z,21.80
2022-08-16T18:29:54.807Z,21.73
2022-08-16T18:32:24.745Z,21.62
2022-08-16T18:34:52.615Z,21.57
2022-08-16T18:37:20.978Z,21.51
2022-08-16T18:39:49.293Z,21.41
2022-08-16T18:42:16.212Z,21.27
2022-08-16T18:44:44.234Z,21.21
2022-08-16T18:47:11.326Z,21.16
2022-08-16T18:49:38.176Z,21.09
2022-08-16T18:52:05.224Z,21.05
2022-08-16T18:54:33.726Z,20.91
2022-08-16T18:57:21.875Z,20.88
2022-08-16T18:59:48.752Z,20.78
2022-08-16T19:02:57.539Z,20.74
2022-08-16T19:05:12.437Z,20.65
2022-08-16T19:07:39.340Z,20.59
2022-08-16T19:10:08.102Z,20.56
2022-08-16T19:12:47.193Z,20.51
2022-08-16T19:15:17.398Z,20.39
2022-08-16T19:17:44.900Z,20.26
2022-08-16T19:20:13.600Z,20.13
2022-08-16T19:25:46.613Z,20.11
2022-08-16T19:28:33.340Z,20.11
2022-08-16T19:31:09.148Z,20.00
2022-08-16T19:33:37.018Z,19.90
2022-08-16T19:36:05.139Z,19.85
2022-08-16T19:38:32.221Z,19.87
2022-08-16T19:40:59.059Z,19.88
2022-08-16T19:43:27.464Z,19.89
2022-08-16T19:45:54.697Z,19.89
2022-08-16T19:48:21.834Z,19.95
2022-08-16T19:50:48.724Z,20.03
2022-08-16T19:53:18.939Z,20.12
2022-08-16T19:55:47.599Z,20.18
2022-08-16T19:58:16.013Z,20.19
2022-08-16T20:00:47.085Z,20.18
2022-08-16T20:03:20.894Z,20.10
2022-08-16T20:05:50.358Z,19.99
2022-08-16T20:08:18.703Z,19.91
2022-08-16T20:10:47.041Z,19.90
2022-08-16T20:13:17.478Z,19.90
2022-08-16T20:15:47.059Z,19.91
2022-08-16T20:18:24.773Z,19.90
2022-08-16T20:20:53.620Z,19.98
2022-08-16T20:23:24.942Z,20.01
2022-08-16T20:25:53.721Z,19.97
2022-08-16T20:28:51.689Z,19.97
2022-08-16T20:31:09.274Z,20.02
2022-08-16T20:33:36.094Z,19.85
2022-08-16T20:36:03.248Z,19.73
2022-08-16T20:38:31.186Z,19.73
2022-08-16T20:40:58.154Z,19.82
2022-08-16T20:43:24.887Z,19.98
2022-08-16T20:45:51.654Z,20.10
2022-08-16T20:48:19.934Z,20.11
2022-08-16T20:50:46.873Z,20.07
2022-08-16T20:53:13.808Z,19.97
2022-08-16T20:55:41.891Z,19.96
2022-08-16T20:58:08.692Z,19.95
2022-08-16T21:00:35.561Z,19.91
2022-08-16T21:03:06.452Z,19.89
2022-08-16T21:05:34.837Z,19.88
2022-08-16T21:08:02.600Z,19.90
2022-08-16T21:10:48.671Z,20.04
2022-08-16T21:13:16.463Z,20.06
2022-08-16T21:15:43.791Z,20.02
2022-08-16T21:18:10.552Z,20.01
2022-08-16T21:20:39.120Z,19.97
2022-08-16T21:23:08.854Z,19.96
2022-08-16T21:25:37.466Z,19.93
2022-08-16T21:28:40.335Z,19.90
2022-08-16T21:30:58.907Z,19.88
2022-08-16T21:33:25.872Z,19.90
2022-08-16T21:35:54.344Z,19.87
2022-08-16T21:38:29.001Z,19.87
2022-08-16T21:40:57.355Z,19.88
2022-08-16T21:43:25.503Z,19.83
2022-08-16T21:45:55.529Z,19.84
2022-08-16T21:48:35.278Z,19.85
2022-08-16T21:51:06.332Z,19.79
2022-08-16T21:53:34.177Z,19.68
2022-08-16T21:56:01.376Z,19.64
2022-08-16T21:58:28.566Z,19.65
2022-08-16T22:00:55.363Z,19.70
2022-08-16T22:03:23.559Z,19.71
2022-08-16T22:06:13.302Z,19.73
2022-08-16T22:08:45.621Z,19.79
2022-08-16T22:11:16.889Z,19.84
2022-08-16T22:13:52.805Z,19.79
2022-08-16T22:16:27.399Z,19.78
2022-08-16T22:18:54.387Z,19.82
2022-08-16T22:21:21.231Z,19.90
2022-08-16T22:23:56.798Z,19.86
2022-08-16T22:26:29.891Z,19.85
2022-08-16T22:28:58.599Z,19.79
2022-08-16T22:31:25.496Z,19.76
2022-08-16T22:33:52.297Z,19.78
2022-08-16T22:36:19.303Z,19.87
2022-08-16T22:38:53.944Z,20.11
2022-08-16T22:41:25.419Z,20.25
2022-08-16T22:43:52.484Z,20.35
2022-08-16T22:46:19.680Z,20.43
2022-08-16T22:48:50.110Z,20.41
2022-08-16T22:51:18.332Z,20.31
2022-08-16T22:53:45.216Z,20.31
2022-08-16T22:56:12.009Z,20.31
2022-08-16T22:58:40.121Z,20.30
2022-08-16T23:01:09.119Z,20.24
2022-08-16T23:03:36.499Z,20.28
2022-08-16T23:06:04.436Z,20.27
2022-08-16T23:08:38.941Z,20.24
2022-08-16T23:11:07.828Z,20.14
2022-08-16T23:13:34.657Z,20.07
2022-08-16T23:16:10.555Z,20.00
2022-08-16T23:18:38.932Z,19.98
2022-08-16T23:21:09.183Z,19.92
2022-08-16T23:23:36.333Z,19.82
2022-08-16T23:26:46.192Z,19.80
2022-08-16T23:28:51.314Z,19.74
2022-08-16T23:31:19.940Z,19.72
2022-08-16T23:33:46.823Z,19.66
2022-08-16T23:36:13.680Z,19.63
2022-08-16T23:38:41.498Z,19.56
2022-08-16T23:41:12.132Z,19.57
2022-08-16T23:43:43.770Z,19.60
2022-08-16T23:46:15.135Z,19.57
2022-08-16T23:49:45.059Z,19.59
2022-08-16T23:51:31.367Z,19.60
2022-08-16T23:53:58.191Z,19.56
2022-08-16T23:56:25.869Z,19.60
2022-08-16T23:59:02.148Z,19.64
